sensor_id;sensor_type;location;lat;lon;timestamp;P1;durP1;ratioP1;P2;durP2;ratioP2
49296;SDS011;35163;48.878;18.040;2023-01-10T00:00:24;2.88;;;1.67;;
49296;SDS011;35163;48.878;18.040;2023-01-10T00:02:53;2.40;;;1.40;;
49296;SDS011;35163;48.878;18.040;2023-01-10T00:05:20;4.03;;;1.58;;
49296;SDS011;35163;48.878;18.040;2023-01-10T00:07:47;2.53;;;1.45;;
49296;SDS011;35163;48.878;18.040;2023-01-10T00:10:13;2.92;;;1.63;;
49296;SDS011;35163;48.878;18.040;2023-01-10T00:12:40;3.38;;;1.65;;
49296;SDS011;35163;48.878;18.040;2023-01-10T00:17:52;1.88;;;1.30;;
49296;SDS011;35163;48.878;18.040;2023-01-10T00:20:18;2.33;;;1.60;;
49296;SDS011;35163;48.878;18.040;2023-01-10T00:22:45;2.03;;;1.23;;
49296;SDS011;35163;48.878;18.040;2023-01-10T00:25:14;2.25;;;1.48;;
49296;SDS011;35163;48.878;18.040;2023-01-10T00:27:41;3.97;;;1.75;;
49296;SDS011;35163;48.878;18.040;2023-01-10T00:30:10;2.17;;;1.40;;
49296;SDS011;35163;48.878;18.040;2023-01-10T00:32:42;2.22;;;1.50;;
49296;SDS011;35163;48.878;18.040;2023-01-10T00:35:10;1.70;;;1.45;;
49296;SDS011;35163;48.878;18.040;2023-01-10T00:37:38;4.72;;;1.45;;
49296;SDS011;35163;48.878;18.040;2023-01-10T00:40:06;3.53;;;1.73;;
49296;SDS011;35163;48.878;18.040;2023-01-10T00:42:36;2.33;;;1.38;;
49296;SDS011;35163;48.878;18.040;2023-01-10T00:45:22;2.53;;;1.40;;
49296;SDS011;35163;48.878;18.040;2023-01-10T00:47:50;3.03;;;1.40;;
49296;SDS011;35163;48.878;18.040;2023-01-10T00:50:17;2.22;;;1.40;;
49296;SDS011;35163;48.878;18.040;2023-01-10T00:52:44;2.78;;;1.50;;
49296;SDS011;35163;48.878;18.040;2023-01-10T00:55:11;3.42;;;1.80;;
49296;SDS011;35163;48.878;18.040;2023-01-10T00:57:37;1.95;;;1.38;;
49296;SDS011;35163;48.878;18.040;2023-01-10T01:00:04;3.75;;;1.65;;
49296;SDS011;35163;48.878;18.040;2023-01-10T01:02:34;2.50;;;1.42;;
49296;SDS011;35163;48.878;18.040;2023-01-10T01:05:02;2.63;;;1.33;;
49296;SDS011;35163;48.878;18.040;2023-01-10T01:07:29;2.15;;;1.45;;
49296;SDS011;35163;48.878;18.040;2023-01-10T01:09:56;3.33;;;1.60;;
49296;SDS011;35163;48.878;18.040;2023-01-10T01:12:41;2.75;;;1.50;;
49296;SDS011;35163;48.878;18.040;2023-01-10T01:15:08;3.53;;;1.60;;
49296;SDS011;35163;48.878;18.040;2023-01-10T01:17:35;2.55;;;1.30;;
49296;SDS011;35163;48.878;18.040;2023-01-10T01:20:01;1.60;;;1.27;;
49296;SDS011;35163;48.878;18.040;2023-01-10T01:22:28;3.75;;;1.75;;
49296;SDS011;35163;48.878;18.040;2023-01-10T01:24:55;2.90;;;1.70;;
49296;SDS011;35163;48.878;18.040;2023-01-10T01:27:22;4.95;;;1.70;;
49296;SDS011;35163;48.878;18.040;2023-01-10T01:29:48;2.22;;;1.50;;
49296;SDS011;35163;48.878;18.040;2023-01-10T01:32:15;7.18;;;2.08;;
49296;SDS011;35163;48.878;18.040;2023-01-10T01:34:41;3.25;;;1.70;;
49296;SDS011;35163;48.878;18.040;2023-01-10T01:37:08;2.67;;;1.67;;
49296;SDS011;35163;48.878;18.040;2023-01-10T01:39:35;2.80;;;1.63;;
49296;SDS011;35163;48.878;18.040;2023-01-10T01:42:01;3.60;;;1.80;;
49296;SDS011;35163;48.878;18.040;2023-01-10T01:44:30;3.75;;;1.75;;
49296;SDS011;35163;48.878;18.040;2023-01-10T01:49:32;5.25;;;1.73;;
49296;SDS011;35163;48.878;18.040;2023-01-10T01:52:02;2.65;;;1.48;;
49296;SDS011;35163;48.878;18.040;2023-01-10T01:54:33;3.17;;;1.60;;
49296;SDS011;35163;48.878;18.040;2023-01-10T01:57:02;2.92;;;1.60;;
49296;SDS011;35163;48.878;18.040;2023-01-10T01:59:37;4.20;;;1.67;;
49296;SDS011;35163;48.878;18.040;2023-01-10T02:02:08;2.72;;;1.55;;
49296;SDS011;35163;48.878;18.040;2023-01-10T02:04:43;3.42;;;1.50;;
49296;SDS011;35163;48.878;18.040;2023-01-10T02:07:16;2.72;;;1.50;;
49296;SDS011;35163;48.878;18.040;2023-01-10T02:09:48;3.38;;;1.30;;
49296;SDS011;35163;48.878;18.040;2023-01-10T02:12:19;3.95;;;1.50;;
49296;SDS011;35163;48.878;18.040;2023-01-10T02:14:46;4.72;;;1.90;;
49296;SDS011;35163;48.878;18.040;2023-01-10T02:17:15;4.20;;;1.60;;
49296;SDS011;35163;48.878;18.040;2023-01-10T02:19:49;3.55;;;1.90;;
49296;SDS011;35163;48.878;18.040;2023-01-10T02:22:28;2.20;;;1.33;;
49296;SDS011;35163;48.878;18.040;2023-01-10T02:33:05;1.92;;;1.20;;
49296;SDS011;35163;48.878;18.040;2023-01-10T02:35:44;2.88;;;1.30;;
49296;SDS011;35163;48.878;18.040;2023-01-10T02:40:51;2.05;;;1.20;;
49296;SDS011;35163;48.878;18.040;2023-01-10T02:43:28;3.15;;;1.33;;
49296;SDS011;35163;48.878;18.040;2023-01-10T02:46:01;4.25;;;1.50;;
49296;SDS011;35163;48.878;18.040;2023-01-10T02:48:32;3.28;;;1.73;;
49296;SDS011;35163;48.878;18.040;2023-01-10T02:53:39;2.03;;;1.27;;
49296;SDS011;35163;48.878;18.040;2023-01-10T02:58:57;2.10;;;1.20;;
49296;SDS011;35163;48.878;18.040;2023-01-10T03:01:33;4.85;;;1.30;;
49296;SDS011;35163;48.878;18.040;2023-01-10T03:04:18;4.03;;;1.35;;
49296;SDS011;35163;48.878;18.040;2023-01-10T03:12:33;2.92;;;1.30;;
49296;SDS011;35163;48.878;18.040;2023-01-10T03:15:09;2.17;;;1.25;;
49296;SDS011;35163;48.878;18.040;2023-01-10T03:17:39;2.15;;;1.23;;
49296;SDS011;35163;48.878;18.040;2023-01-10T03:20:10;2.58;;;1.20;;
49296;SDS011;35163;48.878;18.040;2023-01-10T03:22:38;1.98;;;1.20;;
49296;SDS011;35163;48.878;18.040;2023-01-10T03:25:07;3.15;;;1.27;;
49296;SDS011;35163;48.878;18.040;2023-01-10T03:33:21;2.28;;;1.25;;
49296;SDS011;35163;48.878;18.040;2023-01-10T03:38:54;3.95;;;1.63;;
49296;SDS011;35163;48.878;18.040;2023-01-10T03:44:20;2.25;;;1.20;;
49296;SDS011;35163;48.878;18.040;2023-01-10T03:47:13;3.63;;;1.50;;
49296;SDS011;35163;48.878;18.040;2023-01-10T03:49:45;7.45;;;2.03;;
49296;SDS011;35163;48.878;18.040;2023-01-10T03:52:15;3.53;;;1.42;;
49296;SDS011;35163;48.878;18.040;2023-01-10T03:54:44;2.90;;;1.30;;
49296;SDS011;35163;48.878;18.040;2023-01-10T03:57:16;1.52;;;1.08;;
49296;SDS011;35163;48.878;18.040;2023-01-10T03:59:45;2.38;;;1.13;;
49296;SDS011;35163;48.878;18.040;2023-01-10T04:02:13;3.08;;;1.33;;
49296;SDS011;35163;48.878;18.040;2023-01-10T04:04:39;2.58;;;1.20;;
49296;SDS011;35163;48.878;18.040;2023-01-10T04:07:06;2.30;;;1.20;;
49296;SDS011;35163;48.878;18.040;2023-01-10T04:09:33;2.00;;;1.20;;
49296;SDS011;35163;48.878;18.040;2023-01-10T04:11:59;2.33;;;1.30;;
49296;SDS011;35163;48.878;18.040;2023-01-10T04:14:26;4.70;;;1.30;;
49296;SDS011;35163;48.878;18.040;2023-01-10T04:16:53;1.77;;;1.20;;
49296;SDS011;35163;48.878;18.040;2023-01-10T04:19:19;1.58;;;1.20;;
49296;SDS011;35163;48.878;18.040;2023-01-10T04:21:46;2.33;;;1.20;;
49296;SDS011;35163;48.878;18.040;2023-01-10T04:24:13;2.85;;;1.20;;
49296;SDS011;35163;48.878;18.040;2023-01-10T04:26:40;2.95;;;1.30;;
49296;SDS011;35163;48.878;18.040;2023-01-10T04:29:06;4.65;;;1.42;;
49296;SDS011;35163;48.878;18.040;2023-01-10T04:31:33;2.67;;;1.30;;
49296;SDS011;35163;48.878;18.040;2023-01-10T04:34:00;2.97;;;1.88;;
49296;SDS011;35163;48.878;18.040;2023-01-10T04:36:26;3.20;;;1.30;;
49296;SDS011;35163;48.878;18.040;2023-01-10T04:38:53;1.92;;;1.27;;
49296;SDS011;35163;48.878;18.040;2023-01-10T04:41:20;3.00;;;1.45;;
49296;SDS011;35163;48.878;18.040;2023-01-10T04:43:47;4.45;;;1.10;;
49296;SDS011;35163;48.878;18.040;2023-01-10T04:46:15;2.30;;;1.33;;
49296;SDS011;35163;48.878;18.040;2023-01-10T04:48:42;1.65;;;1.20;;
49296;SDS011;35163;48.878;18.040;2023-01-10T04:51:08;3.10;;;1.40;;
49296;SDS011;35163;48.878;18.040;2023-01-10T04:53:35;2.47;;;1.30;;
49296;SDS011;35163;48.878;18.040;2023-01-10T04:56:02;3.00;;;1.20;;
49296;SDS011;35163;48.878;18.040;2023-01-10T04:58:36;1.95;;;1.20;;
49296;SDS011;35163;48.878;18.040;2023-01-10T05:01:10;2.53;;;1.15;;
49296;SDS011;35163;48.878;18.040;2023-01-10T05:03:38;2.17;;;1.10;;
49296;SDS011;35163;48.878;18.040;2023-01-10T05:06:05;2.33;;;1.20;;
49296;SDS011;35163;48.878;18.040;2023-01-10T05:08:32;4.38;;;1.20;;
49296;SDS011;35163;48.878;18.040;2023-01-10T05:10:59;3.15;;;1.38;;
49296;SDS011;35163;48.878;18.040;2023-01-10T05:13:26;2.17;;;1.10;;
49296;SDS011;35163;48.878;18.040;2023-01-10T05:15:53;1.92;;;1.05;;
49296;SDS011;35163;48.878;18.040;2023-01-10T05:18:21;2.17;;;1.20;;
49296;SDS011;35163;48.878;18.040;2023-01-10T05:20:48;3.33;;;1.38;;
49296;SDS011;35163;48.878;18.040;2023-01-10T05:23:14;2.45;;;1.30;;
49296;SDS011;35163;48.878;18.040;2023-01-10T05:25:41;4.40;;;1.25;;
49296;SDS011;35163;48.878;18.040;2023-01-10T05:28:07;1.83;;;1.08;;
49296;SDS011;35163;48.878;18.040;2023-01-10T05:30:34;3.20;;;1.10;;
49296;SDS011;35163;48.878;18.040;2023-01-10T05:33:04;1.67;;;1.00;;
49296;SDS011;35163;48.878;18.040;2023-01-10T05:35:31;2.10;;;1.25;;
49296;SDS011;35163;48.878;18.040;2023-01-10T05:37:58;1.55;;;1.15;;
49296;SDS011;35163;48.878;18.040;2023-01-10T05:40:24;2.38;;;1.40;;
49296;SDS011;35163;48.878;18.040;2023-01-10T05:42:51;2.38;;;1.30;;
49296;SDS011;35163;48.878;18.040;2023-01-10T05:45:17;2.67;;;1.20;;
49296;SDS011;35163;48.878;18.040;2023-01-10T05:47:45;2.13;;;1.20;;
49296;SDS011;35163;48.878;18.040;2023-01-10T05:50:11;3.72;;;1.30;;
49296;SDS011;35163;48.878;18.040;2023-01-10T05:52:38;1.50;;;0.93;;
49296;SDS011;35163;48.878;18.040;2023-01-10T05:55:05;2.60;;;1.35;;
49296;SDS011;35163;48.878;18.040;2023-01-10T05:57:32;1.77;;;1.08;;
49296;SDS011;35163;48.878;18.040;2023-01-10T05:59:59;2.60;;;1.17;;
49296;SDS011;35163;48.878;18.040;2023-01-10T06:02:25;2.45;;;1.20;;
49296;SDS011;35163;48.878;18.040;2023-01-10T06:04:52;1.60;;;1.10;;
49296;SDS011;35163;48.878;18.040;2023-01-10T06:07:21;0.80;;;0.80;;
49296;SDS011;35163;48.878;18.040;2023-01-10T06:09:48;2.13;;;1.10;;
49296;SDS011;35163;48.878;18.040;2023-01-10T06:12:16;2.78;;;1.10;;
49296;SDS011;35163;48.878;18.040;2023-01-10T06:14:47;1.75;;;1.10;;
49296;SDS011;35163;48.878;18.040;2023-01-10T06:17:14;4.70;;;1.40;;
49296;SDS011;35163;48.878;18.040;2023-01-10T06:19:40;2.00;;;1.10;;
49296;SDS011;35163;48.878;18.040;2023-01-10T06:22:07;2.95;;;1.10;;
49296;SDS011;35163;48.878;18.040;2023-01-10T06:24:34;1.60;;;1.08;;
49296;SDS011;35163;48.878;18.040;2023-01-10T06:27:00;1.95;;;1.00;;
49296;SDS011;35163;48.878;18.040;2023-01-10T06:29:27;1.77;;;1.20;;
49296;SDS011;35163;48.878;18.040;2023-01-10T06:31:53;1.10;;;0.95;;
49296;SDS011;35163;48.878;18.040;2023-01-10T06:34:20;1.92;;;0.98;;
49296;SDS011;35163;48.878;18.040;2023-01-10T06:36:47;1.75;;;0.90;;
49296;SDS011;35163;48.878;18.040;2023-01-10T06:39:13;1.08;;;0.90;;
49296;SDS011;35163;48.878;18.040;2023-01-10T06:41:40;1.35;;;0.90;;
49296;SDS011;35163;48.878;18.040;2023-01-10T06:44:07;2.88;;;0.90;;
49296;SDS011;35163;48.878;18.040;2023-01-10T06:46:33;2.80;;;1.08;;
49296;SDS011;35163;48.878;18.040;2023-01-10T06:49:02;1.55;;;1.00;;
49296;SDS011;35163;48.878;18.040;2023-01-10T06:51:28;2.03;;;1.02;;
49296;SDS011;35163;48.878;18.040;2023-01-10T06:53:55;1.38;;;0.95;;
49296;SDS011;35163;48.878;18.040;2023-01-10T06:56:22;2.05;;;0.95;;
49296;SDS011;35163;48.878;18.040;2023-01-10T06:58:48;4.63;;;1.10;;
49296;SDS011;35163;48.878;18.040;2023-01-10T07:01:16;1.48;;;1.00;;
49296;SDS011;35163;48.878;18.040;2023-01-10T07:03:45;1.60;;;1.00;;
49296;SDS011;35163;48.878;18.040;2023-01-10T07:06:12;2.30;;;1.10;;
49296;SDS011;35163;48.878;18.040;2023-01-10T07:08:40;2.90;;;1.20;;
49296;SDS011;35163;48.878;18.040;2023-01-10T07:11:09;1.95;;;1.10;;
49296;SDS011;35163;48.878;18.040;2023-01-10T07:13:36;5.70;;;2.20;;
49296;SDS011;35163;48.878;18.040;2023-01-10T07:16:03;2.83;;;1.17;;
49296;SDS011;35163;48.878;18.040;2023-01-10T07:18:35;1.70;;;1.05;;
49296;SDS011;35163;48.878;18.040;2023-01-10T07:21:03;2.83;;;1.30;;
49296;SDS011;35163;48.878;18.040;2023-01-10T07:23:29;1.52;;;1.15;;
49296;SDS011;35163;48.878;18.040;2023-01-10T07:25:57;1.42;;;1.00;;
49296;SDS011;35163;48.878;18.040;2023-01-10T07:28:27;1.83;;;1.20;;
49296;SDS011;35163;48.878;18.040;2023-01-10T07:30:59;2.15;;;1.10;;
49296;SDS011;35163;48.878;18.040;2023-01-10T07:33:27;1.63;;;0.98;;
49296;SDS011;35163;48.878;18.040;2023-01-10T07:35:54;2.00;;;1.30;;
49296;SDS011;35163;48.878;18.040;2023-01-10T07:38:21;1.08;;;0.98;;
49296;SDS011;35163;48.878;18.040;2023-01-10T07:40:47;1.10;;;0.98;;
49296;SDS011;35163;48.878;18.040;2023-01-10T07:43:14;2.78;;;1.30;;
49296;SDS011;35163;48.878;18.040;2023-01-10T07:45:41;2.83;;;1.63;;
49296;SDS011;35163;48.878;18.040;2023-01-10T07:48:07;1.90;;;1.25;;
49296;SDS011;35163;48.878;18.040;2023-01-10T07:50:35;2.20;;;1.20;;
49296;SDS011;35163;48.878;18.040;2023-01-10T07:53:03;4.53;;;1.55;;
49296;SDS011;35163;48.878;18.040;2023-01-10T07:55:31;2.72;;;1.30;;
49296;SDS011;35163;48.878;18.040;2023-01-10T07:57:59;2.22;;;1.23;;
49296;SDS011;35163;48.878;18.040;2023-01-10T08:00:26;3.33;;;1.30;;
49296;SDS011;35163;48.878;18.040;2023-01-10T08:02:53;1.95;;;1.00;;
49296;SDS011;35163;48.878;18.040;2023-01-10T08:05:21;2.35;;;1.40;;
49296;SDS011;35163;48.878;18.040;2023-01-10T08:07:48;3.90;;;1.20;;
49296;SDS011;35163;48.878;18.040;2023-01-10T08:10:14;2.20;;;1.30;;
49296;SDS011;35163;48.878;18.040;2023-01-10T08:12:42;4.22;;;1.55;;
49296;SDS011;35163;48.878;18.040;2023-01-10T08:15:09;1.67;;;1.30;;
49296;SDS011;35163;48.878;18.040;2023-01-10T08:17:35;3.55;;;1.50;;
49296;SDS011;35163;48.878;18.040;2023-01-10T08:20:02;3.08;;;1.38;;
49296;SDS011;35163;48.878;18.040;2023-01-10T08:22:29;2.97;;;1.50;;
49296;SDS011;35163;48.878;18.040;2023-01-10T08:24:55;4.22;;;1.85;;
49296;SDS011;35163;48.878;18.040;2023-01-10T08:27:22;10.68;;;5.00;;
49296;SDS011;35163;48.878;18.040;2023-01-10T08:29:49;3.78;;;1.90;;
49296;SDS011;35163;48.878;18.040;2023-01-10T08:32:15;2.58;;;1.52;;
49296;SDS011;35163;48.878;18.040;2023-01-10T08:34:42;4.13;;;1.60;;
49296;SDS011;35163;48.878;18.040;2023-01-10T08:37:11;2.97;;;1.83;;
49296;SDS011;35163;48.878;18.040;2023-01-10T08:39:39;4.28;;;1.90;;
49296;SDS011;35163;48.878;18.040;2023-01-10T08:42:05;3.67;;;1.67;;
49296;SDS011;35163;48.878;18.040;2023-01-10T08:44:32;2.90;;;1.50;;
49296;SDS011;35163;48.878;18.040;2023-01-10T08:46:59;4.72;;;1.75;;
49296;SDS011;35163;48.878;18.040;2023-01-10T08:49:25;4.47;;;1.90;;
49296;SDS011;35163;48.878;18.040;2023-01-10T08:51:52;3.55;;;1.85;;
49296;SDS011;35163;48.878;18.040;2023-01-10T08:54:18;4.03;;;1.58;;
49296;SDS011;35163;48.878;18.040;2023-01-10T08:56:45;2.65;;;1.50;;
49296;SDS011;35163;48.878;18.040;2023-01-10T08:59:12;6.30;;;2.80;;
49296;SDS011;35163;48.878;18.040;2023-01-10T09:01:38;8.25;;;3.28;;
49296;SDS011;35163;48.878;18.040;2023-01-10T09:04:05;4.15;;;2.10;;
49296;SDS011;35163;48.878;18.040;2023-01-10T09:06:32;3.33;;;1.70;;
49296;SDS011;35163;48.878;18.040;2023-01-10T09:08:58;5.10;;;2.15;;
49296;SDS011;35163;48.878;18.040;2023-01-10T09:11:25;4.03;;;1.75;;
49296;SDS011;35163;48.878;18.040;2023-01-10T09:13:51;3.47;;;1.65;;
49296;SDS011;35163;48.878;18.040;2023-01-10T09:16:18;3.20;;;1.80;;
49296;SDS011;35163;48.878;18.040;2023-01-10T09:18:45;3.30;;;1.70;;
49296;SDS011;35163;48.878;18.040;2023-01-10T09:21:12;4.38;;;1.70;;
49296;SDS011;35163;48.878;18.040;2023-01-10T09:23:38;7.40;;;1.95;;
49296;SDS011;35163;48.878;18.040;2023-01-10T09:26:05;2.63;;;1.50;;
49296;SDS011;35163;48.878;18.040;2023-01-10T09:28:32;3.13;;;1.92;;
49296;SDS011;35163;48.878;18.040;2023-01-10T09:31:01;5.00;;;2.00;;
49296;SDS011;35163;48.878;18.040;2023-01-10T09:33:29;3.45;;;1.77;;
49296;SDS011;35163;48.878;18.040;2023-01-10T09:36:11;2.83;;;1.50;;
49296;SDS011;35163;48.878;18.040;2023-01-10T09:38:38;4.55;;;1.88;;
49296;SDS011;35163;48.878;18.040;2023-01-10T09:41:24;2.90;;;1.73;;
49296;SDS011;35163;48.878;18.040;2023-01-10T09:44:15;7.32;;;2.17;;
49296;SDS011;35163;48.878;18.040;2023-01-10T09:52:04;5.05;;;1.92;;
49296;SDS011;35163;48.878;18.040;2023-01-10T09:54:53;3.42;;;1.80;;
49296;SDS011;35163;48.878;18.040;2023-01-10T09:57:22;4.43;;;2.17;;
49296;SDS011;35163;48.878;18.040;2023-01-10T09:59:50;3.35;;;2.00;;
49296;SDS011;35163;48.878;18.040;2023-01-10T10:02:29;4.55;;;2.20;;
49296;SDS011;35163;48.878;18.040;2023-01-10T10:05:03;5.45;;;2.30;;
49296;SDS011;35163;48.878;18.040;2023-01-10T10:07:34;3.58;;;1.77;;
49296;SDS011;35163;48.878;18.040;2023-01-10T10:10:03;4.57;;;2.13;;
49296;SDS011;35163;48.878;18.040;2023-01-10T10:12:40;5.55;;;3.15;;
49296;SDS011;35163;48.878;18.040;2023-01-10T10:15:23;6.32;;;2.30;;
49296;SDS011;35163;48.878;18.040;2023-01-10T10:23:43;3.50;;;1.70;;
49296;SDS011;35163;48.878;18.040;2023-01-10T10:26:21;3.72;;;1.73;;
49296;SDS011;35163;48.878;18.040;2023-01-10T10:34:43;4.15;;;2.10;;
49296;SDS011;35163;48.878;18.040;2023-01-10T10:42:37;2.90;;;1.63;;
49296;SDS011;35163;48.878;18.040;2023-01-10T10:48:01;3.00;;;1.60;;
49296;SDS011;35163;48.878;18.040;2023-01-10T10:50:36;2.45;;;1.30;;
49296;SDS011;35163;48.878;18.040;2023-01-10T10:53:10;5.15;;;1.63;;
49296;SDS011;35163;48.878;18.040;2023-01-10T10:55:37;3.15;;;1.63;;
49296;SDS011;35163;48.878;18.040;2023-01-10T10:58:04;6.00;;;1.70;;
49296;SDS011;35163;48.878;18.040;2023-01-10T11:00:32;2.58;;;1.42;;
49296;SDS011;35163;48.878;18.040;2023-01-10T11:05:30;1.90;;;1.33;;
49296;SDS011;35163;48.878;18.040;2023-01-10T11:08:02;2.22;;;1.20;;
49296;SDS011;35163;48.878;18.040;2023-01-10T11:10:36;2.85;;;1.48;;
49296;SDS011;35163;48.878;18.040;2023-01-10T11:13:07;1.50;;;1.00;;
49296;SDS011;35163;48.878;18.040;2023-01-10T11:15:58;1.23;;;1.00;;
49296;SDS011;35163;48.878;18.040;2023-01-10T11:18:27;2.15;;;1.10;;
49296;SDS011;35163;48.878;18.040;2023-01-10T11:23:39;1.75;;;1.00;;
49296;SDS011;35163;48.878;18.040;2023-01-10T11:26:21;2.15;;;1.30;;
49296;SDS011;35163;48.878;18.040;2023-01-10T11:28:52;3.33;;;1.45;;
49296;SDS011;35163;48.878;18.040;2023-01-10T11:31:30;4.07;;;1.20;;
49296;SDS011;35163;48.878;18.040;2023-01-10T11:33:58;1.13;;;0.95;;
49296;SDS011;35163;48.878;18.040;2023-01-10T11:36:27;2.70;;;1.00;;
49296;SDS011;35163;48.878;18.040;2023-01-10T11:39:01;1.83;;;1.10;;
49296;SDS011;35163;48.878;18.040;2023-01-10T11:41:29;2.85;;;1.25;;
49296;SDS011;35163;48.878;18.040;2023-01-10T11:44:15;1.48;;;0.90;;
49296;SDS011;35163;48.878;18.040;2023-01-10T11:46:47;2.28;;;1.10;;
49296;SDS011;35163;48.878;18.040;2023-01-10T11:49:17;2.03;;;1.00;;
49296;SDS011;35163;48.878;18.040;2023-01-10T11:51:55;3.75;;;1.20;;
49296;SDS011;35163;48.878;18.040;2023-01-10T11:54:25;2.40;;;1.08;;
49296;SDS011;35163;48.878;18.040;2023-01-10T11:57:06;4.03;;;1.60;;
49296;SDS011;35163;48.878;18.040;2023-01-10T11:59:35;1.95;;;1.20;;
49296;SDS011;35163;48.878;18.040;2023-01-10T12:02:11;1.63;;;1.30;;
49296;SDS011;35163;48.878;18.040;2023-01-10T12:04:41;2.97;;;1.13;;
49296;SDS011;35163;48.878;18.040;2023-01-10T12:07:12;3.42;;;1.40;;
49296;SDS011;35163;48.878;18.040;2023-01-10T12:09:40;2.35;;;1.20;;
49296;SDS011;35163;48.878;18.040;2023-01-10T12:12:19;1.90;;;1.30;;
49296;SDS011;35163;48.878;18.040;2023-01-10T12:14:48;2.47;;;1.40;;
49296;SDS011;35163;48.878;18.040;2023-01-10T12:17:36;2.45;;;1.20;;
49296;SDS011;35163;48.878;18.040;2023-01-10T12:20:04;3.30;;;1.73;;
49296;SDS011;35163;48.878;18.040;2023-01-10T12:22:39;4.85;;;1.75;;
49296;SDS011;35163;48.878;18.040;2023-01-10T12:25:18;3.08;;;1.27;;
49296;SDS011;35163;48.878;18.040;2023-01-10T12:28:00;3.10;;;1.55;;
49296;SDS011;35163;48.878;18.040;2023-01-10T12:30:31;2.58;;;1.40;;
49296;SDS011;35163;48.878;18.040;2023-01-10T12:33:14;2.70;;;1.48;;
49296;SDS011;35163;48.878;18.040;2023-01-10T12:38:39;2.67;;;1.20;;
49296;SDS011;35163;48.878;18.040;2023-01-10T12:44:43;2.25;;;1.40;;
49296;SDS011;35163;48.878;18.040;2023-01-10T12:49:57;2.03;;;1.45;;
49296;SDS011;35163;48.878;18.040;2023-01-10T12:55:11;2.30;;;1.40;;
49296;SDS011;35163;48.878;18.040;2023-01-10T12:57:40;2.83;;;1.63;;
49296;SDS011;35163;48.878;18.040;2023-01-10T13:00:18;3.30;;;1.52;;
49296;SDS011;35163;48.878;18.040;2023-01-10T13:02:50;2.95;;;1.50;;
49296;SDS011;35163;48.878;18.040;2023-01-10T13:05:21;3.42;;;1.48;;
49296;SDS011;35163;48.878;18.040;2023-01-10T13:07:50;2.42;;;1.50;;
49296;SDS011;35163;48.878;18.040;2023-01-10T13:10:20;3.08;;;1.65;;
49296;SDS011;35163;48.878;18.040;2023-01-10T13:12:52;1.85;;;1.30;;
49296;SDS011;35163;48.878;18.040;2023-01-10T13:15:37;2.95;;;1.63;;
49296;SDS011;35163;48.878;18.040;2023-01-10T13:18:23;5.13;;;1.40;;
49296;SDS011;35163;48.878;18.040;2023-01-10T13:21:01;2.15;;;1.60;;
49296;SDS011;35163;48.878;18.040;2023-01-10T13:23:30;2.40;;;1.60;;
49296;SDS011;35163;48.878;18.040;2023-01-10T13:25:59;4.10;;;1.90;;
49296;SDS011;35163;48.878;18.040;2023-01-10T13:28:31;3.80;;;1.70;;
49296;SDS011;35163;48.878;18.040;2023-01-10T13:31:00;2.95;;;1.63;;
49296;SDS011;35163;48.878;18.040;2023-01-10T13:33:31;3.83;;;1.90;;
49296;SDS011;35163;48.878;18.040;2023-01-10T13:36:20;2.58;;;1.58;;
49296;SDS011;35163;48.878;18.040;2023-01-10T13:39:00;4.38;;;1.80;;
49296;SDS011;35163;48.878;18.040;2023-01-10T13:50:56;5.45;;;1.90;;
49296;SDS011;35163;48.878;18.040;2023-01-10T14:00:40;4.90;;;2.10;;
49296;SDS011;35163;48.878;18.040;2023-01-10T14:03:39;5.87;;;2.63;;
49296;SDS011;35163;48.878;18.040;2023-01-10T14:06:17;5.13;;;2.40;;
49296;SDS011;35163;48.878;18.040;2023-01-10T14:08:49;5.88;;;1.90;;
49296;SDS011;35163;48.878;18.040;2023-01-10T14:11:19;5.13;;;2.75;;
49296;SDS011;35163;48.878;18.040;2023-01-10T14:14:17;4.85;;;2.50;;
49296;SDS011;35163;48.878;18.040;2023-01-10T14:19:59;5.05;;;2.45;;
49296;SDS011;35163;48.878;18.040;2023-01-10T14:22:34;5.45;;;2.58;;
49296;SDS011;35163;48.878;18.040;2023-01-10T14:25:04;7.10;;;2.83;;
49296;SDS011;35163;48.878;18.040;2023-01-10T14:27:44;4.43;;;2.50;;
49296;SDS011;35163;48.878;18.040;2023-01-10T14:30:30;4.20;;;2.28;;
49296;SDS011;35163;48.878;18.040;2023-01-10T14:33:10;6.72;;;2.97;;
49296;SDS011;35163;48.878;18.040;2023-01-10T14:35:42;5.38;;;2.70;;
49296;SDS011;35163;48.878;18.040;2023-01-10T14:38:18;7.30;;;3.28;;
49296;SDS011;35163;48.878;18.040;2023-01-10T14:40:50;7.38;;;2.90;;
49296;SDS011;35163;48.878;18.040;2023-01-10T14:43:23;4.53;;;2.55;;
49296;SDS011;35163;48.878;18.040;2023-01-10T14:48:47;6.55;;;3.25;;
49296;SDS011;35163;48.878;18.040;2023-01-10T14:51:18;7.60;;;3.22;;
49296;SDS011;35163;48.878;18.040;2023-01-10T14:53:54;6.47;;;3.28;;
49296;SDS011;35163;48.878;18.040;2023-01-10T14:56:28;7.30;;;3.58;;
49296;SDS011;35163;48.878;18.040;2023-01-10T15:01:51;6.90;;;2.95;;
49296;SDS011;35163;48.878;18.040;2023-01-10T15:04:22;5.90;;;2.78;;
49296;SDS011;35163;48.878;18.040;2023-01-10T15:09:28;8.73;;;3.50;;
49296;SDS011;35163;48.878;18.040;2023-01-10T15:11:57;6.18;;;3.20;;
49296;SDS011;35163;48.878;18.040;2023-01-10T15:14:26;6.07;;;3.33;;
49296;SDS011;35163;48.878;18.040;2023-01-10T15:16:58;8.13;;;3.78;;
49296;SDS011;35163;48.878;18.040;2023-01-10T15:19:37;8.98;;;3.55;;
49296;SDS011;35163;48.878;18.040;2023-01-10T15:22:28;7.10;;;3.53;;
49296;SDS011;35163;48.878;18.040;2023-01-10T15:25:15;7.55;;;3.63;;
49296;SDS011;35163;48.878;18.040;2023-01-10T15:27:44;8.18;;;3.30;;
49296;SDS011;35163;48.878;18.040;2023-01-10T15:30:19;8.70;;;3.92;;
49296;SDS011;35163;48.878;18.040;2023-01-10T15:32:48;8.23;;;4.35;;
49296;SDS011;35163;48.878;18.040;2023-01-10T15:35:17;8.32;;;3.63;;
49296;SDS011;35163;48.878;18.040;2023-01-10T15:37:53;7.03;;;3.53;;
49296;SDS011;35163;48.878;18.040;2023-01-10T15:40:24;9.18;;;3.40;;
49296;SDS011;35163;48.878;18.040;2023-01-10T15:45:44;8.45;;;3.80;;
49296;SDS011;35163;48.878;18.040;2023-01-10T15:48:28;9.00;;;3.47;;
49296;SDS011;35163;48.878;18.040;2023-01-10T15:53:52;9.00;;;3.47;;
49296;SDS011;35163;48.878;18.040;2023-01-10T15:59:18;10.15;;;4.22;;
49296;SDS011;35163;48.878;18.040;2023-01-10T16:01:58;8.35;;;3.40;;
49296;SDS011;35163;48.878;18.040;2023-01-10T16:04:32;7.28;;;3.38;;
49296;SDS011;35163;48.878;18.040;2023-01-10T16:07:07;8.18;;;3.63;;
49296;SDS011;35163;48.878;18.040;2023-01-10T16:09:41;8.15;;;3.65;;
49296;SDS011;35163;48.878;18.040;2023-01-10T16:12:31;9.30;;;3.78;;
49296;SDS011;35163;48.878;18.040;2023-01-10T16:15:21;9.95;;;4.15;;
49296;SDS011;35163;48.878;18.040;2023-01-10T16:17:50;10.20;;;4.03;;
49296;SDS011;35163;48.878;18.040;2023-01-10T16:20:18;6.57;;;3.28;;
49296;SDS011;35163;48.878;18.040;2023-01-10T16:22:55;8.75;;;3.63;;
49296;SDS011;35163;48.878;18.040;2023-01-10T16:25:42;7.88;;;3.42;;
49296;SDS011;35163;48.878;18.040;2023-01-10T16:28:10;6.22;;;3.00;;
49296;SDS011;35163;48.878;18.040;2023-01-10T16:30:39;9.20;;;3.45;;
49296;SDS011;35163;48.878;18.040;2023-01-10T16:33:13;14.48;;;4.70;;
49296;SDS011;35163;48.878;18.040;2023-01-10T16:35:43;7.85;;;3.33;;
49296;SDS011;35163;48.878;18.040;2023-01-10T16:38:11;10.30;;;3.78;;
49296;SDS011;35163;48.878;18.040;2023-01-10T16:40:39;10.43;;;3.97;;
49296;SDS011;35163;48.878;18.040;2023-01-10T16:43:08;8.55;;;3.42;;
49296;SDS011;35163;48.878;18.040;2023-01-10T16:45:51;8.30;;;3.92;;
49296;SDS011;35163;48.878;18.040;2023-01-10T16:48:29;11.57;;;3.60;;
49296;SDS011;35163;48.878;18.040;2023-01-10T16:51:14;9.10;;;3.60;;